Saturday, December 14, 2019, 7:59 PM EST
Back to Local

KAFN, Jaffrey Muni-silver Ranch

Location: Jaffrey, NH, United States Lat: 42.8
Local Time: 7:59 PM EST ( 0:59 GMT) Lon: -72
Time Zone: US/Eastern Elev: 1040 ft

Show me the last for .
Show Decoded

2019-12-14 19:07 METAR KAFN 150007Z AUTO 17010G14KT 9SM FEW005 OVC017 11/10 A2910 RMK AO2 RAE2357
                 P0000 T01110100 =
2019-12-14 18:52 METAR KAFN 142352Z AUTO 16009KT 6SM -RA BR BKN005 OVC019 11/09 A2912 RMK AO2
                 RAB29 SLP868 P0001 60003 T01060094 10106 20039 58041 =
2019-12-14 18:36 METAR KAFN 142336Z AUTO 16009KT 4SM -RA BR OVC005 11/09 A2913 RMK AO2 RAB29
                 P0000 T01060094 =
2019-12-14 18:28 METAR KAFN 142328Z AUTO 15007KT 2SM BR OVC005 10/09 A2913 RMK AO2 T01000094 =
2019-12-14 18:25 METAR KAFN 142325Z AUTO 16009KT 1 1/4SM BR OVC005 10/09 A2914 RMK AO2 T01000089
                 =
2019-12-14 18:17 METAR KAFN 142317Z AUTO VRB04KT 3/4SM BR VV006 04/03 A2914 RMK AO2 PRESFR
                 T00440033 =
2019-12-14 18:12 METAR KAFN 142312Z AUTO 00000KT 1SM BR VV005 04/03 A2915 RMK AO2 T00390033 =
2019-12-14 18:03 METAR KAFN 142303Z AUTO 00000KT 1 1/4SM BR OVC004 04/03 A2915 RMK AO2 T00390028
                 =
2019-12-14 17:52 METAR KAFN 142252Z AUTO 00000KT 1SM BR OVC004 04/03 A2916 RMK AO2 RAE2157 SLP884
                 P0000 T00390033 =
2019-12-14 17:09 METAR KAFN 142209Z AUTO 00000KT 3/4SM BR VV004 04/03 A2919 RMK AO2 RAE2157 P0000
                 T00390033 =
2019-12-14 16:59 METAR KAFN 142159Z AUTO 00000KT 1SM BR VV004 04/04 A2920 RMK AO2 RAE57 P0000
                 T00440039 =
2019-12-14 16:52 METAR KAFN 142152Z AUTO VRB03KT 3/4SM -RA BR OVC004 04/03 A2921 RMK AO2 RAE06B31
                 SLP901 P0001 T00440033 =
2019-12-14 15:52 METAR KAFN 142052Z AUTO 00000KT 1/4SM -RA FG VV003 05/04 A2924 RMK AO2 RAB46
                 SLP914 P0001 60001 T00500044 56030 =
2019-12-14 14:52 METAR KAFN 141952Z AUTO 02003KT 1/2SM FG VV003 06/05 A2927 RMK AO2 SLP923
                 T00610050 =
2019-12-14 13:52 METAR KAFN 141852Z AUTO VRB03KT 3/4SM BR OVC003 06/06 A2930 RMK AO2 SLP934
                 T00610056 =
2019-12-14 12:52 METAR KAFN 141752Z AUTO 00000KT 1/2SM FG VV002 06/05 A2933 RMK AO2 SLP945 60018
                 T00610050 10061 20033 58033 =
2019-12-14 12:14 METAR KAFN 141714Z AUTO 00000KT 1/2SM FG OVC003 06/05 A2937 RMK AO2 T00560050 =
2019-12-14 12:06 METAR KAFN 141706Z AUTO 00000KT 1SM BR OVC003 06/05 A2938 RMK AO2 T00610050 =
2019-12-14 12:04 METAR KAFN 141704Z AUTO 00000KT 1 1/2SM BR OVC003 06/05 A2938 RMK AO2 T00610050
                 =
2019-12-14 11:52 METAR KAFN 141652Z AUTO 00000KT 4SM BR BKN004 OVC010 06/05 A2939 RMK AO2
                 RAB1559E43 SLP964 P0003 T00610050 =
2019-12-14 11:47 METAR KAFN 141647Z AUTO VRB03KT 5SM BR BKN004 OVC012 06/05 A2939 RMK AO2
                 RAB1559E43 P0003 =
2019-12-14 11:39 METAR KAFN 141639Z AUTO VRB03KT 2 1/2SM -RA BR BKN004 OVC012 06/05 A2940 RMK AO2
                 RAB1559 P0003 T00610050 =
2019-12-14 11:33 METAR KAFN 141633Z AUTO VRB04KT 1 1/2SM -RA BR SCT002 OVC006 06/05 A2940 RMK AO2
                 RAB1559 PRESFR P0003 T00560050 =
2019-12-14 11:14 METAR KAFN 141614Z AUTO 36003KT 1SM -RA BR VV003 06/04 A2942 RMK AO2 RAB1559
                 P0001 T00560044 =
2019-12-14 10:52 METAR KAFN 141552Z AUTO VRB03KT 3/4SM BR VV003 06/04 A2943 RMK AO2 RAE05 SLP980
                 P0000 T00560044 =
2019-12-14 10:26 METAR KAFN 141526Z AUTO VRB04KT 3/4SM BR VV003 05/04 A2946 RMK AO2 RAE05 P0000
                 T00500044 =
2019-12-14 10:01 METAR KAFN 141501Z AUTO VRB03KT 1SM -RA BR VV003 05/04 A2948 RMK AO2 P0000
                 T00500039 =
2019-12-14 09:52 METAR KAFN 141452Z AUTO 00000KT 1 1/4SM -RA BR OVC004 05/04 A2949 RMK AO2 SLP998
                 P0003 60015 T00500039 58051 =
2019-12-14 09:43 METAR KAFN 141443Z AUTO VRB04KT 1 1/2SM -RA BR OVC004 05/04 A2950 RMK AO2 P0003
                 T00500039 =
2019-12-14 09:38 METAR KAFN 141438Z AUTO VRB03KT 1SM -RA BR VV004 05/04 A2951 RMK AO2 P0003
                 T00500039 =
2019-12-14 09:30 METAR KAFN 141430Z AUTO 00000KT 1 1/4SM -RA BR OVC004 05/04 A2951 RMK AO2 PRESFR
                 P0003 T00500039 =
2019-12-14 09:19 METAR KAFN 141419Z AUTO 02003KT 2 1/2SM -RA BR OVC004 04/04 A2953 RMK AO2 P0003
                 T00440039 =
2019-12-14 09:09 METAR KAFN 141409Z AUTO VRB03KT 1 1/2SM -RA BR OVC004 04/04 A2954 RMK AO2 P0002
                 T00440039 =
2019-12-14 08:52 METAR KAFN 141352Z AUTO VRB03KT 2SM -RA BR OVC004 04/04 A2955 RMK AO2 SLP018
                 P0005 T00440039 =
2019-12-14 08:20 METAR KAFN 141320Z AUTO VRB04KT 2 1/2SM -RA BR OVC004 04/03 A2957 RMK AO2 P0003
                 T00440033 =
2019-12-14 08:13 METAR KAFN 141313Z AUTO VRB03KT 3SM -RA BR OVC004 04/03 A2958 RMK AO2 P0002
                 T00440033 =
2019-12-14 08:02 METAR KAFN 141302Z AUTO VRB03KT 2 1/2SM -RA BR OVC004 04/03 A2959 RMK AO2 P0001
                 T00440033 =
2019-12-14 07:52 METAR KAFN 141252Z AUTO VRB03KT 3SM -RA BR OVC004 04/03 A2959 RMK AO2 SLP035
                 P0007 T00390033 =
2019-12-14 07:40 METAR KAFN 141240Z AUTO VRB03KT 5SM -RA BR OVC004 04/03 A2960 RMK AO2 P0006
                 T00440033 =
2019-12-14 07:33 METAR KAFN 141233Z AUTO 00000KT 2 1/2SM RA BR OVC004 04/03 A2961 RMK AO2 P0006
                 T00390033 =
2019-12-14 06:52 METAR KAFN 141152Z AUTO 00000KT 3SM -RA BR OVC003 03/03 A2965 RMK AO2 SLP053
                 P0012 60098 70126 T00330028 10039 20006 56039 =
2019-12-14 06:06 METAR KAFN 141106Z AUTO VRB03KT 4SM RA BR BKN003 OVC011 04/03 A2969 RMK AO2
                 P0004 T00390028 =
2019-12-14 05:52 METAR KAFN 141052Z AUTO VRB04KT 2SM +RA BR SCT003 OVC011 03/03 A2970 RMK AO2
                 SLP070 P0025 T00330028 =
2019-12-14 05:49 METAR KAFN 141049Z AUTO 00000KT 2 1/2SM +RA BR SCT003 OVC011 03/03 A2970 RMK AO2
                 P0023 =
2019-12-14 05:26 METAR KAFN 141026Z AUTO VRB04KT 2 1/2SM RA BR SCT002 OVC008 02/02 A2972 RMK AO2
                 PRESFR P0012 T00220017 =
2019-12-14 04:52 METAR KAFN 140952Z AUTO 36003KT 3SM RA BR OVC003 02/01 A2976 RMK AO2 SLP093
                 P0018 T00220011 =
2019-12-14 04:31 METAR KAFN 140931Z AUTO VRB04KT 4SM RA BR OVC003 02/01 A2978 RMK AO2 PRESFR
                 P0012 T00170006 =
2019-12-14 04:17 METAR KAFN 140917Z AUTO VRB03KT 2 1/2SM +RA BR OVC002 01/01 A2981 RMK AO2 PRESFR
                 P0009 T00110006 =
2019-12-14 04:06 METAR KAFN 140906Z AUTO VRB03KT 3SM RA BR OVC002 01/01 A2983 RMK AO2 PRESFR
                 P0004 T00110006 =
2019-12-14 03:52 METAR KAFN 140852Z AUTO VRB03KT 2 1/2SM RA BR OVC002 01/00 A2985 RMK AO2 PRESFR
                 SLP124 P0018 60043 T00110000 58063 =
2019-12-14 03:12 METAR KAFN 140812Z AUTO VRB04KT 3SM RA BR OVC002 01/00 A2990 RMK AO2 P0009
                 T00060000 =
2019-12-14 02:52 METAR KAFN 140752Z AUTO VRB03KT 2 1/2SM RA BR OVC002 01/00 A2992 RMK AO2 PRESFR
                 SLP146 P0016 T00060000 =
2019-12-14 01:52 METAR KAFN 140652Z AUTO VRB03KT 3SM RA BR OVC002 01/M01 A2999 RMK AO2 SLP171
                 P0009 T00061006 =
2019-12-14 00:52 METAR KAFN 140552Z AUTO 02004KT 4SM -RA BR OVC002 01/M01 A3004 RMK AO2 SLP189
                 P0007 60023 I6000 T00061006 10006 20006 58036 =
2019-12-13 23:52 METAR KAFN 140452Z AUTO VRB03KT 3SM -RA BR OVC002 01/00 A3008 RMK AO2 RAB05
                 SLP204 P0004 T00060000 400111078 =
2019-12-13 23:32 METAR KAFN 140432Z AUTO VRB04KT 1 1/2SM -RA BR OVC002 01/00 A3009 RMK AO2 RAB05
                 P0002 T00060000 =
2019-12-13 23:23 METAR KAFN 140423Z AUTO 00000KT 1 1/4SM -RA BR OVC002 01/00 A3010 RMK AO2 RAB05
                 P0001 T00060000 =
2019-12-13 23:00 METAR KAFN 140400Z AUTO 02005KT 1SM BR VV002 01/M01 A3011 RMK AO2 T00061006 =
2019-12-13 22:52 METAR KAFN 140352Z AUTO VRB04KT 1 1/4SM BR OVC002 01/M01 A3012 RMK AO2 RAE41
                 SLP215 P0001 T00061006 =
2019-12-13 22:07 METAR KAFN 140307Z AUTO 01004KT 1 1/4SM -RA BR OVC002 01/M01 A3014 RMK AO2 P0000
                 T00061006 =
2019-12-13 21:59 METAR KAFN 140259Z AUTO VRB05KT 1 1/2SM -RA BR OVC002 01/M01 A3014 RMK AO2 P0000
                 T00061006 =
2019-12-13 21:52 METAR KAFN 140252Z AUTO 02004KT 2SM -RA BR OVC002 01/M01 A3015 RMK AO2 SLP227
                 P0002 60011 I3000 T00061006 58030 =
2019-12-13 20:52 METAR KAFN 140152Z AUTO 01004KT 2 1/2SM -RA BR OVC002 01/M01 A3019 RMK AO2
                 SLP240 P0004 T00061006 =
2019-12-13 20:31 METAR KAFN 140131Z AUTO 00000KT 2 1/2SM -RA BR OVC002 01/M01 A3020 RMK AO2 P0003
                 T00061006 =

Support USWX by starting your Amazon purchase here.